Time;durP1;ratioP1;P1;durP2;ratioP2;P2;SDS_P1;SDS_P2;PMS_P1;PMS_P2;Temp;Humidity;BMP_temperature;BMP_pressure;BME280_temperature;BME280_humidity;BME280_pressure;Samples;Min_cycle;Max_cycle;Signal;HPM_P1;HPM_P2
2021/05/20 00:00:57;;;;;;;8.30;5.10;;;;;;;13.08;61.92;98689.79;262828;1098;116199;-69
2021/05/20 00:06:02;;;;;;;9.03;6.28;;;;;;;13.06;61.97;98699.73;262868;1101;114212;-66
2021/05/20 00:11:07;;;;;;;8.58;5.55;;;;;;;13.04;62.28;98691.81;262916;1099;114357;-67
2021/05/20 00:16:15;;;;;;;8.83;5.27;;;;;;;13.01;61.52;98700.95;262525;1102;114312;-64
2021/05/20 00:21:19;;;;;;;10.53;5.75;;;;;;;12.97;61.85;98706.63;263151;1099;116058;-64
2021/05/20 00:26:24;;;;;;;9.33;5.53;;;;;;;12.92;61.26;98701.65;262850;1102;114888;-66
2021/05/20 00:31:28;;;;;;;9.70;6.08;;;;;;;12.87;61.65;98700.29;261359;1099;114940;-65
2021/05/20 00:36:32;;;;;;;8.58;5.58;;;;;;;12.82;62.85;98700.66;263169;1103;114862;-65
2021/05/20 00:41:37;;;;;;;7.78;5.58;;;;;;;12.84;62.19;98705.86;262794;1098;114511;-66
2021/05/20 00:46:41;;;;;;;7.00;5.43;;;;;;;12.87;61.87;98711.81;262161;1103;114772;-66
2021/05/20 00:51:46;;;;;;;7.70;5.30;;;;;;;12.86;62.58;98707.45;263197;1099;114623;-67
2021/05/20 00:56:50;;;;;;;;;;;;;;;12.83;61.96;98705.02;263198;1102;114819;-66
2021/05/20 01:01:55;;;;;;;7.65;5.70;;;;;;;12.79;61.98;98715.08;261605;1102;103241;-65
2021/05/20 01:07:00;;;;;;;9.53;6.23;;;;;;;12.72;62.70;98719.19;262876;1103;113920;-65
2021/05/20 01:12:09;;;;;;;10.43;5.80;;;;;;;12.65;62.95;98722.45;262153;1100;114738;-66
2021/05/20 01:17:13;;;;;;;9.47;5.80;;;;;;;12.55;62.15;98724.95;262546;1089;114667;-67
2021/05/20 01:22:18;;;;;;;;;;;;;;;12.46;62.95;98728.30;262436;1099;114794;-66
2021/05/20 01:27:23;;;;;;;9.05;5.83;;;;;;;12.37;61.93;98727.19;263225;1104;101340;-65
2021/05/20 01:32:27;;;;;;;8.55;6.23;;;;;;;12.33;62.28;98723.05;262925;1099;114883;-66
2021/05/20 01:37:31;;;;;;;10.23;6.10;;;;;;;12.33;62.60;98723.05;263145;1104;114908;-67
2021/05/20 01:42:34;;;;;;;8.47;6.00;;;;;;;12.34;62.57;98721.23;262929;1100;115019;-67
2021/05/20 01:47:38;;;;;;;9.18;6.35;;;;;;;12.36;62.33;98724.62;262918;1104;114893;-65
2021/05/20 01:52:42;;;;;;;10.20;6.38;;;;;;;12.33;62.91;98723.05;262852;1099;114728;-65
2021/05/20 01:57:46;;;;;;;8.25;6.40;;;;;;;12.30;62.33;98731.28;262834;1104;115303;-67
2021/05/20 02:02:49;;;;;;;10.75;7.03;;;;;;;12.25;62.76;98736.94;263159;1100;115188;-66
2021/05/20 02:07:53;;;;;;;10.20;7.17;;;;;;;12.19;62.44;98734.72;263091;1104;115950;-66
2021/05/20 02:12:57;;;;;;;10.23;6.90;;;;;;;12.15;62.08;98729.73;262865;1100;115467;-65
2021/05/20 02:18:00;;;;;;;10.55;6.70;;;;;;;12.10;62.74;98726.56;262597;1105;114497;-66
2021/05/20 02:23:05;;;;;;;9.60;6.57;;;;;;;12.01;62.84;98726.25;262419;1100;115304;-65
2021/05/20 02:28:08;;;;;;;10.98;6.65;;;;;;;11.97;63.13;98721.27;263155;1104;115881;-66
2021/05/20 02:33:13;;;;;;;9.20;6.43;;;;;;;11.96;62.41;98741.76;262750;1100;115561;-66
2021/05/20 02:38:17;;;;;;;;;;;;;;;12.01;63.34;98739.59;262574;1105;114658;-66
2021/05/20 02:43:20;;;;;;;10.75;7.18;;;;;;;11.99;62.65;98740.66;263203;1100;101254;-65
2021/05/20 02:48:24;;;;;;;8.93;6.33;;;;;;;11.99;62.96;98745.99;263143;1104;115624;-66
2021/05/20 02:53:28;;;;;;;14.40;6.80;;;;;;;11.97;62.34;98742.61;263147;1104;114702;-67
2021/05/20 02:58:31;;;;;;;8.77;6.50;;;;;;;11.92;62.48;98750.95;262920;1099;118203;-65
2021/05/20 03:03:35;;;;;;;10.50;5.80;;;;;;;11.82;62.65;98750.72;262944;1104;115118;-67
2021/05/20 03:08:39;;;;;;;11.10;7.00;;;;;;;11.73;62.44;98762.03;263083;1100;115107;-67
2021/05/20 03:13:42;;;;;;;11.30;6.40;;;;;;;11.61;62.96;98769.06;262609;1104;114681;-67
2021/05/20 03:18:46;;;;;;;12.30;6.50;;;;;;;11.50;63.16;98770.80;262679;1100;114907;-66
2021/05/20 03:23:50;;;;;;;9.17;6.27;;;;;;;11.47;63.19;98771.86;262932;1104;115217;-66
2021/05/20 03:28:53;;;;;;;9.38;6.38;;;;;;;11.53;63.16;98776.77;263034;1100;115183;-67
2021/05/20 03:33:57;;;;;;;10.30;6.35;;;;;;;11.59;63.50;98779.00;262710;1105;115557;-67
2021/05/20 03:39:00;;;;;;;9.08;6.68;;;;;;;11.63;63.13;98773.46;262660;1100;114977;-66
2021/05/20 03:44:04;;;;;;;9.68;6.23;;;;;;;11.66;63.50;98775.91;262822;1104;115162;-66
2021/05/20 03:49:08;;;;;;;8.25;5.83;;;;;;;11.67;63.54;98774.94;262588;1100;115083;-67
2021/05/20 03:54:12;;;;;;;12.07;6.43;;;;;;;11.69;63.36;98779.21;263108;1104;114650;-67
2021/05/20 03:59:16;;;;;;;13.27;6.70;;;;;;;11.73;63.88;98795.84;261426;1099;114968;-66
2021/05/20 04:04:27;;;;;;;10.53;5.85;;;;;;;11.78;63.36;98801.69;261181;1104;115504;-68
2021/05/20 04:09:33;;;;;;;9.37;5.50;;;;;;;11.81;63.52;98796.98;261238;1104;115101;-64
2021/05/20 04:14:42;;;;;;;8.93;6.00;;;;;;;11.89;64.25;98793.83;261193;1104;114300;-65
2021/05/20 04:19:48;;;;;;;8.60;5.97;;;;;;;12.04;63.95;98799.87;261880;1100;115178;-66
2021/05/20 04:24:52;;;;;;;8.85;5.80;;;;;;;12.13;63.50;98806.38;263161;1104;114816;-65
2021/05/20 04:29:56;;;;;;;13.45;6.03;;;;;;;12.20;63.27;98811.14;262656;1100;115022;-65
2021/05/20 04:34:59;;;;;;;10.23;5.65;;;;;;;12.27;63.49;98816.89;262756;1104;115150;-65
2021/05/20 04:40:04;;;;;;;12.57;5.90;;;;;;;12.30;63.90;98819.34;262594;1098;114368;-65
2021/05/20 04:45:08;;;;;;;14.95;5.95;;;;;;;12.33;63.29;98818.23;262500;1105;115669;-65
2021/05/20 04:50:13;;;;;;;8.38;5.58;;;;;;;12.37;63.07;98828.59;262537;1100;114631;-66
2021/05/20 04:55:18;;;;;;;7.93;5.47;;;;;;;12.42;64.04;98822.91;262278;1105;114796;-68
2021/05/20 05:00:22;;;;;;;8.80;5.58;;;;;;;12.49;63.24;98830.35;262248;1098;114894;-66
2021/05/20 05:05:26;;;;;;;9.58;5.55;;;;;;;12.56;63.86;98833.42;262395;1105;114299;-65
2021/05/20 05:10:30;;;;;;;10.40;5.60;;;;;;;12.67;64.04;98832.63;262326;1100;115125;-65
2021/05/20 05:15:34;;;;;;;6.55;4.78;;;;;;;12.81;63.46;98840.50;263140;1104;114836;-66
2021/05/20 05:20:38;;;;;;;10.70;5.63;;;;;;;12.92;63.60;98835.20;263175;1100;114566;-65
2021/05/20 05:25:41;;;;;;;11.83;5.30;;;;;;;13.03;63.44;98840.57;263217;1101;115070;-67
2021/05/20 05:30:46;;;;;;;9.97;4.90;;;;;;;13.12;63.02;98844.38;263194;1099;114921;-66
2021/05/20 05:35:50;;;;;;;10.23;5.23;;;;;;;13.22;62.85;98841.88;262759;1104;114860;-66
2021/05/20 05:40:53;;;;;;;6.25;4.73;;;;;;;13.31;63.32;98838.51;262918;1100;114770;-65
2021/05/20 05:45:57;;;;;;;11.75;5.33;;;;;;;13.38;63.76;98833.55;262951;1104;114775;-66
2021/05/20 05:51:01;;;;;;;8.00;5.53;;;;;;;13.43;63.33;98842.92;262746;1100;115347;-66
2021/05/20 05:56:05;;;;;;;10.63;5.60;;;;;;;13.45;62.54;98841.00;262763;1104;114977;-66
2021/05/20 06:01:09;;;;;;;9.03;5.35;;;;;;;13.48;62.51;98851.45;262426;1100;114972;-66
2021/05/20 06:06:14;;;;;;;6.53;4.30;;;;;;;13.51;63.14;98849.50;262458;1104;115065;-66
2021/05/20 06:11:18;;;;;;;8.70;4.25;;;;;;;13.57;62.55;98851.70;262409;1101;114789;-67
2021/05/20 06:16:22;;;;;;;7.80;4.25;;;;;;;13.65;62.63;98851.95;262415;1105;114948;-67
2021/05/20 06:21:25;;;;;;;5.50;4.07;;;;;;;13.77;62.53;98852.83;262849;1099;114857;-67
2021/05/20 06:26:29;;;;;;;5.63;3.70;;;;;;;13.90;62.83;98856.25;262790;1104;114764;-68
2021/05/20 06:31:36;;;;;;;6.88;3.40;;;;;;;14.01;62.23;98853.58;263115;1099;115495;-64
2021/05/20 06:36:40;;;;;;;4.50;2.80;;;;;;;14.13;61.70;98851.73;263120;1104;114793;-66
2021/05/20 06:41:44;;;;;;;6.70;3.27;;;;;;;14.25;61.74;98858.80;262596;1100;114487;-67
2021/05/20 06:46:47;;;;;;;8.10;3.23;;;;;;;14.31;61.17;98847.60;262922;1104;114615;-67
2021/05/20 06:51:51;;;;;;;6.75;2.70;;;;;;;14.35;61.33;98851.73;262947;1100;114708;-66
2021/05/20 06:57:01;;;;;;;5.00;2.70;;;;;;;14.41;61.17;98850.39;262273;1105;115343;-67
2021/05/20 07:02:04;;;;;;;3.80;2.67;;;;;;;14.48;61.10;98848.07;263064;1100;114496;-67
2021/05/20 07:07:08;;;;;;;7.77;2.80;;;;;;;14.48;60.57;98856.11;263118;1104;114455;-66
2021/05/20 07:12:13;;;;;;;4.70;2.80;;;;;;;14.48;60.21;98859.63;263015;1099;114818;-66
2021/05/20 07:17:16;;;;;;;8.40;3.00;;;;;;;14.53;60.44;98861.95;262617;1104;114678;-67
2021/05/20 07:22:20;;;;;;;6.87;2.67;;;;;;;14.57;59.79;98856.25;262458;1100;114951;-67
2021/05/20 07:27:24;;;;;;;5.23;2.97;;;;;;;14.63;60.01;98861.08;262920;1104;115050;-67
2021/05/20 07:32:29;;;;;;;5.55;3.00;;;;;;;14.72;60.10;98854.13;262775;1100;114689;-67
2021/05/20 07:37:38;;;;;;;9.10;2.70;;;;;;;14.86;59.95;98852.98;262505;1104;115213;-66
2021/05/20 07:42:46;;;;;;;6.13;2.70;;;;;;;14.92;59.40;98868.56;262723;1100;114381;-66
2021/05/20 07:47:50;;;;;;;6.60;3.18;;;;;;;14.96;59.43;98869.16;263181;1104;114605;-65
2021/05/20 07:52:53;;;;;;;5.30;3.07;;;;;;;14.97;59.17;98878.89;262768;1100;114964;-65
2021/05/20 07:57:59;;;;;;;5.40;2.80;;;;;;;14.96;59.00;98874.52;262821;1104;115001;-65
2021/05/20 08:03:22;;;;;;;7.03;2.93;;;;;;;14.98;59.06;98875.23;262979;1100;114219;-66
2021/05/20 08:08:33;;;;;;;5.75;3.10;;;;;;;15.01;58.65;98869.61;262957;1104;114543;-66
2021/05/20 08:13:37;;;;;;;7.57;3.13;;;;;;;15.13;58.64;98873.97;262918;1100;114528;-66
2021/05/20 08:18:42;;;;;;;5.53;3.00;;;;;;;15.18;58.54;98881.61;263150;1104;114305;-66
2021/05/20 08:23:45;;;;;;;5.18;3.15;;;;;;;15.20;58.26;98880.52;262928;1100;114916;-66
2021/05/20 08:28:50;;;;;;;5.13;3.20;;;;;;;15.25;58.04;98874.75;263136;1104;114835;-66
2021/05/20 08:33:54;;;;;;;5.23;3.25;;;;;;;15.33;58.27;98873.15;263061;1099;114763;-65
2021/05/20 08:38:57;;;;;;;8.70;3.03;;;;;;;15.37;57.77;98885.31;263152;1104;115409;-65
2021/05/20 08:44:08;;;;;;;3.50;2.83;;;;;;;15.38;57.60;98881.64;263088;1099;114992;-66
2021/05/20 08:49:15;;;;;;;7.50;3.30;;;;;;;15.39;57.69;98887.88;262789;1104;114323;-65
2021/05/20 08:54:23;;;;;;;7.27;3.43;;;;;;;15.37;57.38;98890.67;262679;1101;114893;-67
2021/05/20 08:59:27;;;;;;;7.17;3.70;;;;;;;15.41;57.46;98893.09;262374;1104;114389;-65
2021/05/20 09:04:31;;;;;;;6.70;3.78;;;;;;;15.40;57.32;98894.94;263169;1100;114860;-66
2021/05/20 09:09:38;;;;;;;3.58;2.90;;;;;;;15.42;57.28;98890.30;262301;1105;114336;-66
2021/05/20 09:14:42;;;;;;;4.33;2.90;;;;;;;15.47;57.07;98889.91;262846;1100;114537;-66
2021/05/20 09:19:53;;;;;;;5.10;3.00;;;;;;;15.51;56.76;98891.34;263035;1104;114604;-67
2021/05/20 09:25:00;;;;;;;8.77;3.63;;;;;;;15.50;56.66;98885.13;262993;1099;115296;-66
2021/05/20 09:30:11;;;;;;;7.25;3.75;;;;;;;15.53;56.32;98897.44;263158;1104;115089;-67
2021/05/20 09:35:17;;;;;;;8.78;3.68;;;;;;;15.57;56.75;98893.51;263085;1100;114906;-67
2021/05/20 09:40:45;;;;;;;7.47;3.57;;;;;;;15.65;56.93;98895.53;263116;1104;115278;-67
2021/05/20 09:45:54;;;;;;;7.23;3.30;;;;;;;15.77;56.78;98884.64;263161;1098;114600;-67
2021/05/20 09:50:58;;;;;;;7.30;2.93;;;;;;;15.93;56.75;98877.94;262556;1104;114927;-66
2021/05/20 09:56:02;;;;;;;5.03;2.53;;;;;;;16.11;56.40;98873.66;262715;1101;114863;-67
2021/05/20 10:01:18;;;;;;;4.83;2.80;;;;;;;16.31;56.05;98869.23;262739;1100;114797;-66
2021/05/20 10:06:42;;;;;;;2.67;1.83;;;;;;;16.54;55.55;98869.84;262774;1098;115105;-66
2021/05/20 10:11:45;;;;;;;3.20;1.60;;;;;;;16.83;54.78;98858.36;263148;1104;114491;-64
2021/05/20 10:16:50;;;;;;;2.10;1.50;;;;;;;17.03;53.66;98857.39;263012;1100;114149;-64
2021/05/20 10:21:54;;;;;;;5.33;1.33;;;;;;;17.19;53.36;98855.00;262411;1104;115587;-65
2021/05/20 10:26:59;;;;;;;5.73;1.10;;;;;;;17.35;52.57;98861.63;262767;1102;116401;-65
2021/05/20 10:32:04;;;;;;;1.25;0.88;;;;;;;17.50;52.19;98850.30;263180;1104;114295;-64
2021/05/20 10:37:08;;;;;;;2.77;0.60;;;;;;;17.64;51.62;98851.69;263113;1099;115603;-64
2021/05/20 10:42:31;;;;;;;1.93;0.90;;;;;;;17.82;50.95;98848.28;263061;1104;116469;-65
2021/05/20 10:48:04;;;;;;;0.95;0.80;;;;;;;18.05;50.75;98859.55;262818;1100;114956;-64
2021/05/20 10:53:08;;;;;;;3.23;0.90;;;;;;;18.35;49.90;98861.14;263140;1099;115097;-64
2021/05/20 10:58:29;;;;;;;6.83;0.95;;;;;;;18.51;49.89;98860.47;263084;1104;114667;-64
2021/05/20 11:03:55;;;;;;;4.33;0.50;;;;;;;18.52;48.78;98863.03;263137;1100;115030;-64
2021/05/20 11:08:59;;;;;;;1.57;0.70;;;;;;;18.77;48.53;98849.86;262757;1104;114912;-65
2021/05/20 11:14:23;;;;;;;2.48;0.80;;;;;;;18.97;48.61;98856.82;262985;1100;115290;-65
2021/05/20 11:19:28;;;;;;;2.67;0.70;;;;;;;19.24;47.79;98855.06;262909;1104;114840;-64
2021/05/20 11:24:39;;;;;;;1.47;0.70;;;;;;;19.42;47.28;98853.18;262806;1099;114155;-64
2021/05/20 11:29:45;;;;;;;1.83;0.90;;;;;;;19.60;46.71;98859.42;262813;1104;114801;-64
2021/05/20 11:40:00;;;;;;;1.53;0.83;;;;;;;19.85;46.27;98862.31;263135;1104;114591;-65
2021/05/20 11:45:05;;;;;;;1.43;0.70;;;;;;;19.68;45.99;98864.05;262720;1100;114906;-64
2021/05/20 11:50:12;;;;;;;1.97;0.80;;;;;;;19.86;45.68;98858.60;262588;1105;114697;-65
2021/05/20 11:55:18;;;;;;;2.20;0.77;;;;;;;19.93;45.58;98867.77;263141;1100;115118;-65
2021/05/20 12:00:22;;;;;;;1.50;0.83;;;;;;;19.90;45.28;98870.78;263022;1104;114675;-66
2021/05/20 12:05:26;;;;;;;1.45;1.03;;;;;;;20.14;45.17;98861.13;263117;1100;115100;-66
2021/05/20 12:10:52;;;;;;;2.97;0.80;;;;;;;20.27;44.85;98867.79;263139;1104;114736;-66
2021/05/20 12:15:56;;;;;;;2.67;1.00;;;;;;;20.49;44.50;98860.98;262830;1100;115600;-66
2021/05/20 12:20:59;;;;;;;1.38;0.90;;;;;;;20.35;43.55;98876.98;262437;1104;115295;-65
2021/05/20 12:26:03;;;;;;;3.40;0.83;;;;;;;20.01;43.76;98877.80;263062;1099;114929;-65
2021/05/20 12:31:07;;;;;;;1.25;0.90;;;;;;;20.13;44.27;98870.25;262803;1104;114684;-65
2021/05/20 12:36:35;;;;;;;3.75;1.30;;;;;;;20.54;44.06;98868.63;262703;1104;115423;-66
2021/05/20 12:41:41;;;;;;;1.80;1.10;;;;;;;20.93;43.97;98868.09;263049;1104;114514;-65
2021/05/20 12:46:45;;;;;;;3.85;0.88;;;;;;;21.14;43.66;98879.28;263141;1099;114675;-65
2021/05/20 12:51:59;;;;;;;3.60;1.10;;;;;;;21.41;43.47;98870.05;263150;1104;115058;-65
2021/05/20 12:57:08;;;;;;;4.25;1.63;;;;;;;21.16;42.57;98884.52;262925;1100;114969;-66
2021/05/20 13:02:18;;;;;;;1.70;0.98;;;;;;;21.14;42.95;98868.46;263102;1104;114580;-65
2021/05/20 13:07:32;;;;;;;3.77;1.10;;;;;;;21.48;42.77;98868.35;262742;1099;114745;-65
2021/05/20 13:12:43;;;;;;;2.83;0.70;;;;;;;21.53;41.94;98866.99;262786;1104;115164;-64
2021/05/20 13:18:21;;;;;;;2.50;0.70;;;;;;;21.69;41.73;98861.58;262880;1100;114797;-65
2021/05/20 13:23:24;;;;;;;2.25;0.80;;;;;;;22.06;42.02;98854.75;262850;1104;114405;-65
2021/05/20 13:28:37;;;;;;;1.05;0.95;;;;;;;22.43;41.74;98848.73;263108;1099;114218;-65
2021/05/20 13:33:43;;;;;;;5.85;1.40;;;;;;;22.77;41.41;98861.97;263127;1104;114698;-65
2021/05/20 13:38:48;;;;;;;2.87;0.93;;;;;;;22.54;40.04;98853.77;263098;1100;114735;-65
2021/05/20 13:43:54;;;;;;;6.33;1.00;;;;;;;22.56;40.45;98857.16;263106;1104;114725;-65
2021/05/20 13:48:57;;;;;;;1.85;0.88;;;;;;;22.48;39.67;98859.05;263069;1100;114921;-65
2021/05/20 13:54:21;;;;;;;2.70;1.30;;;;;;;22.79;40.09;98857.22;262831;1104;114936;-65
2021/05/20 13:59:25;;;;;;;1.78;1.03;;;;;;;22.52;39.84;98854.95;262349;1100;114214;-65
2021/05/20 14:04:38;;;;;;;2.13;1.08;;;;;;;21.81;39.24;98862.09;263080;1104;115684;-65
2021/05/20 14:09:46;;;;;;;3.70;0.83;;;;;;;21.49;39.58;98859.20;262847;1100;114793;-65
2021/05/20 14:14:50;;;;;;;4.93;0.90;;;;;;;21.85;40.07;98856.14;263128;1100;115121;-65
2021/05/20 14:19:59;;;;;;;2.93;0.98;;;;;;;22.06;39.39;98860.17;262677;1104;114709;-65
2021/05/20 14:25:03;;;;;;;3.77;0.90;;;;;;;21.63;38.66;98863.09;262769;1104;114634;-65
2021/05/20 14:30:07;;;;;;;3.58;1.30;;;;;;;21.27;39.07;98870.69;262720;1099;114803;-65
2021/05/20 14:35:11;;;;;;;2.05;1.10;;;;;;;21.19;39.35;98862.53;262417;1105;114841;-65
2021/05/20 14:40:15;;;;;;;0.93;0.73;;;;;;;20.86;38.82;98867.91;262697;1100;114936;-65
2021/05/20 14:45:19;;;;;;;1.60;0.90;;;;;;;20.53;38.87;98867.78;262254;1105;114621;-65
2021/05/20 14:50:27;;;;;;;2.88;0.78;;;;;;;20.29;38.81;98870.34;263072;1100;114586;-65
2021/05/20 14:55:42;;;;;;;2.13;0.80;;;;;;;20.03;39.02;98868.50;262507;1100;114359;-65
2021/05/20 15:06:16;;;;;;;3.68;0.90;;;;;;;19.71;38.66;98871.84;263145;1104;114831;-65
2021/05/20 15:11:33;;;;;;;3.80;0.80;;;;;;;19.54;38.87;98872.69;262828;1104;114957;-65
2021/05/20 15:16:44;;;;;;;2.63;0.80;;;;;;;19.28;38.89;98869.92;263084;1104;114671;-65
2021/05/20 15:21:48;;;;;;;2.10;0.90;;;;;;;19.10;39.03;98878.88;262462;1100;114601;-65
2021/05/20 15:26:52;;;;;;;1.03;0.50;;;;;;;19.02;39.05;98865.31;262460;1103;114198;-64
2021/05/20 15:31:57;;;;;;;3.20;0.88;;;;;;;18.93;39.52;98870.77;262952;1099;114886;-65
2021/05/20 15:37:00;;;;;;;2.67;0.97;;;;;;;18.89;39.72;98862.14;263060;1104;114322;-66
2021/05/20 15:42:04;;;;;;;1.50;0.90;;;;;;;18.80;39.60;98866.58;263107;1099;114735;-65
2021/05/20 15:47:14;;;;;;;1.73;0.78;;;;;;;18.71;39.91;98862.05;262854;1104;114952;-66
2021/05/20 15:52:19;;;;;;;3.83;0.93;;;;;;;18.63;40.08;98870.06;262944;1100;115148;-66
2021/05/20 15:57:24;;;;;;;1.15;0.70;;;;;;;18.60;40.16;98871.20;262751;1104;115090;-66
2021/05/20 16:02:28;;;;;;;2.97;0.87;;;;;;;18.57;40.01;98874.20;263038;1104;115983;-66
2021/05/20 16:18:13;;;;;;;1.63;0.93;;;;;;;18.40;40.56;98885.77;262875;1104;115006;-67
2021/05/20 16:39:09;;;;;;;3.43;1.00;;;;;;;18.24;41.22;98899.02;261360;1104;114999;-66
2021/05/20 16:44:15;;;;;;;1.97;1.20;;;;;;;18.18;40.66;98895.94;262504;1101;114582;-66
2021/05/20 16:49:19;;;;;;;2.58;1.03;;;;;;;18.13;40.42;98892.81;262300;1104;114982;-66
2021/05/20 16:54:28;;;;;;;1.50;0.97;;;;;;;18.12;40.18;98887.59;262620;1104;114689;-66
2021/05/20 16:59:35;;;;;;;2.27;0.97;;;;;;;18.04;40.17;98896.41;262553;1104;114465;-67
2021/05/20 17:04:46;;;;;;;2.90;1.10;;;;;;;17.98;39.97;98902.38;262730;1100;114858;-66
2021/05/20 17:09:55;;;;;;;3.80;1.10;;;;;;;17.90;40.63;98900.42;262848;1104;114402;-66
2021/05/20 17:15:00;;;;;;;1.48;1.00;;;;;;;17.81;40.03;98911.20;262376;1101;115160;-66
2021/05/20 17:20:06;;;;;;;1.83;1.20;;;;;;;17.72;40.22;98913.70;262730;1104;115802;-66
2021/05/20 17:25:10;;;;;;;2.80;1.07;;;;;;;17.64;40.64;98915.44;262878;1100;115429;-65
2021/05/20 17:30:15;;;;;;;2.58;1.15;;;;;;;17.57;40.79;98917.00;262522;1105;115033;-66
2021/05/20 17:35:18;;;;;;;3.08;1.23;;;;;;;17.51;40.61;98918.41;262541;1102;115097;-66
2021/05/20 17:40:22;;;;;;;2.98;1.23;;;;;;;17.43;40.97;98921.81;262580;1104;114436;-65
2021/05/20 17:45:26;;;;;;;4.67;1.30;;;;;;;17.31;41.44;98940.92;262833;1104;115156;-65
2021/05/20 17:50:29;;;;;;;3.87;1.70;;;;;;;17.19;42.00;98943.75;262881;1104;114857;-66
2021/05/20 17:55:33;;;;;;;3.57;1.53;;;;;;;17.10;42.09;98943.73;262630;1100;115156;-66
2021/05/20 18:00:37;;;;;;;10.20;1.77;;;;;;;17.05;42.13;98959.41;262704;1104;114269;-66
2021/05/20 18:05:41;;;;;;;5.50;2.27;;;;;;;16.98;42.26;98965.37;263016;1100;115639;-66
2021/05/20 18:11:10;;;;;;;4.25;1.70;;;;;;;16.90;42.49;98959.80;263125;1104;114446;-66
2021/05/20 18:26:50;;;;;;;5.80;1.63;;;;;;;16.64;43.33;98974.67;262506;1100;115530;-65
2021/05/20 18:31:57;;;;;;;4.90;1.63;;;;;;;16.54;43.59;98967.44;262560;1104;114976;-66
2021/05/20 18:37:01;;;;;;;3.17;1.70;;;;;;;16.49;43.69;98979.56;262980;1099;115054;-65
2021/05/20 18:42:05;;;;;;;2.80;1.60;;;;;;;16.41;44.12;98979.39;262868;1104;116030;-65
2021/05/20 18:47:09;;;;;;;4.00;2.20;;;;;;;16.35;44.37;98991.52;262930;1100;114830;-65
2021/05/20 18:52:13;;;;;;;4.30;2.05;;;;;;;16.28;44.57;98991.19;262975;1104;116525;-66
2021/05/20 18:57:18;;;;;;;6.70;2.60;;;;;;;16.14;44.76;99004.95;263011;1100;115559;-66
2021/05/20 19:02:22;;;;;;;4.37;2.10;;;;;;;16.05;44.88;99003.89;263096;1104;115317;-66
2021/05/20 19:07:38;;;;;;;6.65;1.93;;;;;;;15.93;45.50;99015.69;262825;1100;115328;-66
2021/05/20 19:12:42;;;;;;;5.93;3.37;;;;;;;15.79;45.70;99021.34;263081;1104;114783;-66
2021/05/20 19:17:46;;;;;;;6.10;3.47;;;;;;;15.71;46.12;99023.83;262945;1100;114899;-66
2021/05/20 19:22:54;;;;;;;5.80;3.33;;;;;;;15.61;46.19;99021.02;262823;1104;114473;-66
2021/05/20 19:27:58;;;;;;;6.47;3.47;;;;;;;15.53;46.48;99018.98;263023;1104;114839;-66
2021/05/20 19:33:02;;;;;;;12.03;3.50;;;;;;;15.45;46.90;99025.95;262996;1104;115193;-66
2021/05/20 19:38:05;;;;;;;6.17;3.47;;;;;;;15.32;47.31;99021.61;263059;1099;115416;-66
2021/05/20 19:43:11;;;;;;;6.30;3.13;;;;;;;15.20;47.79;99027.97;262811;1099;114255;-66
2021/05/20 19:48:15;;;;;;;5.70;3.10;;;;;;;15.08;47.63;99029.83;262896;1099;114780;-66
2021/05/20 19:53:41;;;;;;;5.87;3.50;;;;;;;15.01;48.00;99036.63;262841;1104;115296;-66
2021/05/20 20:04:08;;;;;;;8.40;4.03;;;;;;;14.93;48.64;99043.59;262996;1100;115091;-66
2021/05/20 20:09:12;;;;;;;8.27;4.10;;;;;;;14.87;48.80;99051.13;263044;1104;116275;-66
2021/05/20 20:14:17;;;;;;;7.48;4.05;;;;;;;14.82;48.47;99053.34;263131;1099;114789;-67
2021/05/20 20:19:30;;;;;;;8.17;3.93;;;;;;;14.74;48.61;99050.42;263010;1104;115551;-66
2021/05/20 20:29:40;;;;;;;10.03;4.97;;;;;;;14.66;49.38;99058.19;263130;1104;117698;-66
2021/05/20 20:45:30;;;;;;;8.97;4.77;;;;;;;14.51;49.24;99068.30;262541;1099;116310;-66
2021/05/20 20:50:35;;;;;;;12.37;4.73;;;;;;;14.43;49.72;99071.55;263118;1104;114944;-66
2021/05/20 20:55:38;;;;;;;9.10;5.10;;;;;;;14.36;49.62;99070.28;262678;1100;115653;-66
2021/05/20 21:00:42;;;;;;;7.20;4.57;;;;;;;14.25;50.43;99064.91;262747;1104;114312;-67
2021/05/20 21:05:46;;;;;;;8.38;5.13;;;;;;;14.14;50.64;99056.86;263091;1104;114912;-66
2021/05/20 21:10:53;;;;;;;8.60;4.48;;;;;;;14.04;50.36;99061.20;263099;1099;114860;-66
2021/05/20 21:16:03;;;;;;;10.13;4.90;;;;;;;13.97;50.54;99071.52;263016;1104;114396;-66
2021/05/20 21:21:14;;;;;;;9.83;5.10;;;;;;;13.88;50.73;99070.38;262719;1102;114784;-65
2021/05/20 21:26:18;;;;;;;9.48;5.33;;;;;;;13.80;51.08;99059.41;262564;1104;115174;-65
2021/05/20 21:31:25;;;;;;;8.28;5.13;;;;;;;13.73;51.58;99059.02;263085;1099;114494;-65
2021/05/20 21:36:32;;;;;;;12.33;5.23;;;;;;;13.68;51.99;99055.81;262723;1101;114882;-65
2021/05/20 21:41:37;;;;;;;9.90;5.77;;;;;;;13.61;51.43;99064.41;262849;1100;115019;-65
2021/05/20 21:46:41;;;;;;;;;;;;;;;13.51;52.32;99060.71;262698;1104;115239;-65
2021/05/20 21:51:52;;;;;;;10.57;6.23;;;;;;;13.41;52.28;99061.38;262853;1100;101168;-65
2021/05/20 21:56:59;;;;;;;10.98;5.75;;;;;;;13.36;52.43;99070.72;263111;1104;115097;-65
2021/05/20 22:02:11;;;;;;;10.53;5.97;;;;;;;13.28;52.38;99065.94;263037;1100;114916;-65
2021/05/20 22:07:21;;;;;;;10.90;5.67;;;;;;;13.27;52.85;99076.73;261498;1104;114949;-66
2021/05/20 22:12:35;;;;;;;10.23;5.80;;;;;;;13.20;52.93;99069.11;262385;1099;115095;-65
2021/05/20 22:17:49;;;;;;;10.35;6.00;;;;;;;13.16;53.01;99074.80;262697;1104;114508;-65
2021/05/20 22:22:58;;;;;;;10.43;5.90;;;;;;;13.12;53.30;99068.83;262655;1105;115317;-65
2021/05/20 22:28:17;;;;;;;15.05;6.10;;;;;;;13.07;53.46;99073.63;263115;1104;115291;-65
2021/05/20 22:33:32;;;;;;;10.70;5.70;;;;;;;13.02;53.33;99076.64;262814;1104;115156;-66
2021/05/20 22:38:42;;;;;;;12.07;5.80;;;;;;;13.00;53.31;99085.72;262752;1100;114779;-66
2021/05/20 22:43:48;;;;;;;10.03;5.83;;;;;;;12.98;53.63;99076.98;262511;1104;114973;-67
2021/05/20 22:49:02;;;;;;;13.43;5.80;;;;;;;12.92;54.08;99083.61;263090;1099;114723;-64
2021/05/20 22:54:18;;;;;;;15.10;6.17;;;;;;;12.85;53.94;99085.01;262822;1104;114992;-64
2021/05/20 22:59:23;;;;;;;18.93;6.73;;;;;;;12.78;53.78;99076.57;262633;1100;115278;-63
2021/05/20 23:04:30;;;;;;;13.03;7.17;;;;;;;12.75;54.97;99078.61;262237;1104;114961;-65
2021/05/20 23:09:41;;;;;;;;;;;;;;;12.71;54.19;99075.30;262626;1100;114733;-66
2021/05/20 23:15:00;;;;;;;12.40;7.35;;;;;;;12.64;54.45;99075.84;263121;1103;101067;-63
2021/05/20 23:20:11;;;;;;;12.27;7.37;;;;;;;12.57;54.59;99075.41;263039;1100;114921;-63
2021/05/20 23:25:26;;;;;;;13.70;7.90;;;;;;;12.50;55.21;99063.45;262909;1104;114867;-64
2021/05/20 23:30:36;;;;;;;15.10;7.57;;;;;;;12.43;55.25;99063.03;262633;1100;114541;-64
2021/05/20 23:35:45;;;;;;;12.40;7.70;;;;;;;12.36;54.73;99077.73;262359;1104;114964;-66
2021/05/20 23:41:17;;;;;;;17.00;9.75;;;;;;;12.30;55.62;99067.50;263013;1099;115034;-65
2021/05/20 23:46:32;;;;;;;19.00;10.00;;;;;;;12.26;56.06;99076.65;261947;1104;115198;-65
2021/05/20 23:51:41;;;;;;;18.53;11.10;;;;;;;12.21;55.61;99068.12;262362;1100;115042;-65
2021/05/20 23:56:59;;;;;;;18.90;11.33;;;;;;;12.13;56.13;99079.32;263080;1104;114644;-65
